Time;durP1;ratioP1;P1;durP2;ratioP2;P2;SDS_P1;SDS_P2;PMS_P1;PMS_P2;Temp;Humidity;BMP_temperature;BMP_pressure;BME280_temperature;BME280_humidity;BME280_pressure;Samples;Min_cycle;Max_cycle;Signal;HPM_P1;HPM_P2
2022/04/12 00:00:57;;;;;;;;;25.00;23.25;;;;;11.27;45.59;99118.50;6063274;28;96352;-70
2022/04/12 00:04:01;;;;;;;;;27.00;24.00;;;;;11.23;45.23;99123.50;6062916;28;96274;-69
2022/04/12 00:07:05;;;;;;;;;27.40;24.00;;;;;11.21;45.50;99124.75;6175734;28;97416;-70
2022/04/12 00:10:10;;;;;;;;;28.75;24.00;;;;;11.19;45.40;99124.97;6129286;28;96884;-69
2022/04/12 00:13:13;;;;;;;;;31.00;27.00;;;;;11.20;45.48;99121.22;6131798;28;97942;-70
2022/04/12 00:16:18;;;;;;;;;27.50;26.00;;;;;11.16;45.50;99116.50;6211917;28;96889;-70
2022/04/12 00:19:20;;;;;;;;;31.60;27.40;;;;;11.05;45.53;99107.25;6202111;28;96913;-70
2022/04/12 00:22:23;;;;;;;;;24.00;22.00;;;;;10.96;45.57;99102.34;6087343;28;98407;-69
2022/04/12 00:25:28;;;;;;;;;28.00;25.00;;;;;10.65;46.05;99092.41;6086994;28;96855;-71
2022/04/12 00:28:31;;;;;;;;;27.80;24.20;;;;;10.85;46.31;99106.56;6085652;28;96559;-70
2022/04/12 00:31:36;;;;;;;;;26.00;23.00;;;;;10.91;46.32;99105.69;6086944;28;97565;-70
2022/04/12 00:34:39;;;;;;;;;27.80;25.00;;;;;10.91;46.11;99100.28;6188339;28;97338;-70
2022/04/12 00:37:43;;;;;;;;;26.20;24.00;;;;;10.87;46.04;99091.00;6164813;28;96635;-70
2022/04/12 00:40:46;;;;;;;;;30.50;25.00;;;;;10.80;46.02;99091.03;6102618;28;96400;-69
2022/04/12 00:43:50;;;;;;;;;26.00;24.00;;;;;10.77;45.96;99091.47;6146863;28;97466;-70
2022/04/12 00:46:54;;;;;;;;;24.75;23.25;;;;;10.84;46.31;99091.44;6209761;28;96341;-69
2022/04/12 00:49:58;;;;;;;;;29.00;26.00;;;;;10.89;46.33;99094.31;6190129;28;96519;-69
2022/04/12 00:53:02;;;;;;;;;25.00;22.80;;;;;10.89;46.39;99086.22;6086224;28;98055;-69
2022/04/12 00:56:06;;;;;;;;;30.50;24.50;;;;;10.91;46.34;99094.91;6085457;28;97594;-69
2022/04/12 00:59:11;;;;;;;;;29.80;26.00;;;;;10.89;46.27;99096.19;6106128;28;96614;-70
2022/04/12 01:02:15;;;;;;;;;31.80;28.80;;;;;10.83;46.34;99097.88;6063292;28;96732;-69
2022/04/12 01:05:19;;;;;;;;;29.00;27.00;;;;;10.79;46.62;99096.66;6084635;28;97423;-71
2022/04/12 01:08:22;;;;;;;;;28.00;24.00;;;;;10.83;46.33;99092.47;6176204;28;96416;-70
2022/04/12 01:11:26;;;;;;;;;27.40;24.20;;;;;10.88;46.48;99091.81;6211331;28;96772;-71
2022/04/12 01:14:30;;;;;;;;;29.00;24.00;;;;;10.93;46.31;99087.44;6137599;28;99756;-71
2022/04/12 01:17:34;;;;;;;;;29.00;25.00;;;;;10.93;46.27;99087.44;6089188;28;96298;-69
2022/04/12 01:20:37;;;;;;;;;26.00;22.40;;;;;10.83;46.39;99085.22;6088216;28;96417;-70
2022/04/12 01:23:46;;;;;;;;;22.00;21.00;;;;;10.72;46.53;99085.91;6088049;28;97379;-69
2022/04/12 01:26:51;;;;;;;;;24.40;21.00;;;;;10.64;46.64;99096.13;6114146;28;97431;-70
2022/04/12 01:29:55;;;;;;;;;21.60;20.00;;;;;10.65;46.49;99078.91;6172053;28;96395;-70
2022/04/12 01:32:58;;;;;;;;;26.00;21.00;;;;;10.58;46.49;99060.06;6177994;28;98191;-70
2022/04/12 01:36:02;;;;;;;;;21.67;19.33;;;;;10.61;46.37;99070.41;6091960;28;97716;-69
2022/04/12 01:39:05;;;;;;;;;23.00;21.00;;;;;10.63;46.66;99081.00;6176150;28;97449;-70
2022/04/12 01:42:10;;;;;;;;;24.75;21.00;;;;;10.68;46.60;99086.56;6098969;28;97433;-69
2022/04/12 01:45:13;;;;;;;;;25.00;23.00;;;;;10.74;45.90;99086.53;6213683;28;96606;-68
2022/04/12 01:48:18;;;;;;;;;24.00;21.00;;;;;10.79;45.35;99092.09;6213338;28;96958;-70
2022/04/12 01:51:22;;;;;;;;;25.00;22.00;;;;;10.84;45.16;99091.44;6116765;28;96226;-70
2022/04/12 01:54:25;;;;;;;;;23.40;20.40;;;;;10.89;44.04;99099.69;6094914;28;96422;-70
2022/04/12 01:57:30;;;;;;;;;25.00;20.40;;;;;10.96;43.48;99103.16;6118314;28;97002;-70
2022/04/12 02:00:35;;;;;;;;;21.75;19.75;;;;;11.00;43.73;99107.06;6119497;28;96253;-69
2022/04/12 02:03:38;;;;;;;;;23.25;21.25;;;;;11.00;43.90;99106.25;6172322;28;96861;-70
2022/04/12 02:06:41;;;;;;;;;24.00;20.40;;;;;10.96;43.97;99105.84;6116417;28;96594;-69
2022/04/12 02:09:45;;;;;;;;;22.60;20.40;;;;;10.98;43.82;99111.88;6089787;28;97429;-69
2022/04/12 02:12:49;;;;;;;;;22.00;18.40;;;;;10.89;43.87;99099.69;6115272;28;97366;-70
2022/04/12 02:15:53;;;;;;;;;22.75;21.50;;;;;10.97;44.05;99101.28;6087665;28;96519;-70
2022/04/12 02:18:56;;;;;;;;;25.00;23.00;;;;;11.05;44.31;99120.72;6087921;28;96859;-69
2022/04/12 02:21:59;;;;;;;;;25.00;22.00;;;;;11.04;44.76;99119.09;6179789;28;97360;-70
2022/04/12 02:25:03;;;;;;;;;23.80;21.40;;;;;11.03;45.19;99122.84;6212746;28;98592;-68
2022/04/12 02:28:07;;;;;;;;;19.75;18.00;;;;;10.91;45.27;99108.38;6090589;28;96831;-70
2022/04/12 02:31:11;;;;;;;;;24.50;22.00;;;;;10.96;45.12;99123.91;6102033;28;96480;-70
2022/04/12 02:34:14;;;;;;;;;24.60;23.00;;;;;10.94;45.10;99115.22;6086727;28;96706;-69
2022/04/12 02:37:18;;;;;;;;;24.60;21.60;;;;;10.85;45.01;99123.56;6088188;28;97979;-70
2022/04/12 02:40:21;;;;;;;;;19.50;18.00;;;;;10.90;44.65;99132.91;6188063;28;96336;-69
2022/04/12 02:43:26;;;;;;;;;23.00;21.75;;;;;10.93;44.37;99141.38;6112073;28;96475;-69
2022/04/12 02:46:29;;;;;;;;;24.60;21.00;;;;;10.97;44.56;99134.50;6089536;28;97365;-70
2022/04/12 02:49:32;;;;;;;;;22.75;21.00;;;;;10.94;44.59;99134.94;6094214;28;97388;-69
2022/04/12 02:52:36;;;;;;;;;26.20;22.00;;;;;10.94;44.46;99139.50;6087083;28;98617;-70
2022/04/12 02:55:39;;;;;;;;;22.00;20.00;;;;;10.93;44.68;99144.06;6075550;28;97305;-70
2022/04/12 02:58:44;;;;;;;;;22.00;20.50;;;;;10.76;45.24;99135.66;6081582;28;96435;-70
2022/04/12 03:01:47;;;;;;;;;26.00;22.00;;;;;10.65;45.49;99138.22;6085308;28;96549;-70
2022/04/12 03:04:50;;;;;;;;;24.40;23.00;;;;;10.54;45.69;99147.00;6070389;28;97089;-70
2022/04/12 03:07:54;;;;;;;;;24.60;20.60;;;;;10.52;46.07;99149.91;6084274;28;96530;-70
2022/04/12 03:10:57;;;;;;;;;25.00;23.00;;;;;10.51;46.24;99144.72;6093368;28;97350;-70
2022/04/12 03:14:01;;;;;;;;;25.20;22.00;;;;;10.54;46.17;99157.78;6123587;28;96586;-70
2022/04/12 03:17:05;;;;;;;;;21.50;18.00;;;;;10.55;46.19;99154.03;6086183;28;97487;-70
2022/04/12 03:20:10;;;;;;;;;24.80;23.00;;;;;10.56;46.05;99155.69;6082806;28;97588;-69
2022/04/12 03:23:13;;;;;;;;;26.20;23.00;;;;;10.52;45.96;99152.59;6097972;28;97568;-70
2022/04/12 03:26:16;;;;;;;;;26.20;22.20;;;;;10.50;46.00;99156.56;6213041;28;96855;-70
2022/04/12 03:29:21;;;;;;;;;25.00;24.00;;;;;10.27;46.13;99119.31;6149322;28;96747;-69
2022/04/12 03:32:24;;;;;;;;;25.20;23.00;;;;;10.37;45.90;99149.34;6196179;28;96289;-70
2022/04/12 03:35:28;;;;;;;;;26.20;24.00;;;;;10.35;46.05;99141.50;6100651;28;99498;-69
2022/04/12 03:38:31;;;;;;;;;28.60;24.60;;;;;10.24;46.07;99147.53;6209217;28;97025;-71
2022/04/12 03:41:34;;;;;;;;;27.50;24.00;;;;;10.25;46.17;99148.38;6211003;28;96308;-70
2022/04/12 03:44:40;;;;;;;;;26.00;23.00;;;;;10.26;46.21;99147.34;6122533;28;97150;-69
2022/04/12 03:47:43;;;;;;;;;30.00;26.00;;;;;10.29;46.25;99136.13;6084349;28;97429;-70
2022/04/12 03:50:46;;;;;;;;;26.00;24.80;;;;;10.31;45.85;99144.84;6083810;28;98644;-69
2022/04/12 03:53:49;;;;;;;;;27.00;24.00;;;;;10.34;45.58;99141.69;6090129;28;97154;-69
2022/04/12 03:56:53;;;;;;;;;27.40;24.40;;;;;10.34;45.88;99142.53;6097865;28;97424;-70
2022/04/12 03:59:58;;;;;;;;;26.80;24.40;;;;;10.34;45.63;99141.69;6102761;28;96853;-69
2022/04/12 04:03:02;;;;;;;;;29.60;25.60;;;;;10.25;45.55;99138.41;6092927;28;97812;-69
2022/04/12 04:06:06;;;;;;;;;31.00;27.80;;;;;10.40;45.34;99147.06;6082776;28;99534;-70
2022/04/12 04:09:12;;;;;;;;;28.00;25.50;;;;;10.42;45.10;99144.13;6126477;28;97070;-69
2022/04/12 04:12:16;;;;;;;;;30.00;27.00;;;;;10.43;45.31;99156.56;6106073;28;97370;-71
2022/04/12 04:15:21;;;;;;;;;32.60;29.00;;;;;10.41;45.20;99148.69;6088395;28;97945;-71
2022/04/12 04:18:24;;;;;;;;;31.60;24.00;;;;;10.38;45.26;99154.53;6078493;28;98027;-70
2022/04/12 04:21:27;;;;;;;;;32.00;26.75;;;;;10.39;45.30;99155.34;6083957;28;97300;-72
2022/04/12 04:24:31;;;;;;;;;31.40;27.60;;;;;10.35;45.54;99171.13;6082033;28;98241;-70
2022/04/12 04:27:34;;;;;;;;;29.00;28.00;;;;;10.31;45.46;99164.50;6064189;28;98918;-71
2022/04/12 04:30:44;;;;;;;;;29.80;26.20;;;;;10.30;45.35;99167.41;6067462;28;96885;-71
2022/04/12 04:33:47;;;;;;;;;29.60;27.60;;;;;10.10;45.09;99131.59;6067477;28;96701;-71
2022/04/12 04:36:51;;;;;;;;;28.00;26.40;;;;;10.31;45.36;99166.38;6077478;28;98212;-71
2022/04/12 04:39:54;;;;;;;;;33.40;28.00;;;;;10.34;45.36;99163.25;6069623;28;97350;-71
2022/04/12 04:42:58;;;;;;;;;29.60;27.00;;;;;10.38;45.43;99176.09;6071193;28;97443;-71
2022/04/12 04:46:03;;;;;;;;;29.00;27.00;;;;;10.35;45.60;99168.44;6075332;28;97009;-72
2022/04/12 04:49:06;;;;;;;;;29.60;27.00;;;;;10.40;45.51;99174.03;6068466;28;98146;-71
2022/04/12 04:52:10;;;;;;;;;29.40;28.00;;;;;10.43;45.59;99176.28;6078476;28;97415;-71
2022/04/12 04:55:13;;;;;;;;;32.00;25.80;;;;;10.50;45.42;99173.56;6069914;28;97294;-71
2022/04/12 04:58:17;;;;;;;;;26.50;23.50;;;;;10.59;45.53;99182.22;6071141;28;96965;-70
2022/04/12 05:01:21;;;;;;;;;31.00;26.40;;;;;10.71;45.80;99191.28;6077556;28;97210;-70
2022/04/12 05:04:25;;;;;;;;;31.40;27.40;;;;;10.78;45.57;99198.31;6079884;28;98152;-70
2022/04/12 05:07:28;;;;;;;;;29.00;26.00;;;;;10.83;44.66;99205.75;6066527;28;96859;-69
2022/04/12 05:10:32;;;;;;;;;32.80;29.20;;;;;11.00;43.98;99192.56;6071078;28;97820;-70
2022/04/12 05:13:36;;;;;;;;;33.00;30.00;;;;;11.20;43.49;99210.28;6080835;28;97348;-71
2022/04/12 05:16:41;;;;;;;;;31.40;30.00;;;;;11.34;43.82;99212.91;6078733;28;97013;-70
2022/04/12 05:19:44;;;;;;;;;34.00;30.00;;;;;11.42;43.11;99213.47;6084750;28;97183;-71
2022/04/12 05:22:47;;;;;;;;;31.25;27.75;;;;;11.51;42.21;99212.16;6083650;28;96370;-69
2022/04/12 05:25:53;;;;;;;;;35.25;30.00;;;;;11.66;42.06;99218.06;6084754;28;96806;-70
2022/04/12 05:28:57;;;;;;;;;36.80;30.00;;;;;11.67;42.19;99213.50;6085439;28;96882;-69
2022/04/12 05:32:01;;;;;;;;;30.40;29.00;;;;;11.75;42.00;99221.34;6084001;28;96841;-70
2022/04/12 05:35:05;;;;;;;;;26.80;23.20;;;;;11.86;41.23;99227.91;6083063;28;96297;-70
2022/04/12 05:38:09;;;;;;;;;28.00;23.00;;;;;11.97;40.64;99225.28;6073042;28;99063;-70
2022/04/12 05:41:12;;;;;;;;;24.40;23.40;;;;;12.04;41.03;99223.34;6082634;28;98441;-70
2022/04/12 05:44:16;;;;;;;;;24.00;22.20;;;;;11.98;41.28;99215.28;6084429;28;97419;-70
2022/04/12 05:47:20;;;;;;;;;28.00;24.60;;;;;12.09;41.37;99230.78;6084098;28;96761;-70
2022/04/12 05:50:26;;;;;;;;;25.25;23.25;;;;;12.24;40.53;99233.97;6079058;28;96501;-71
2022/04/12 05:53:30;;;;;;;;;28.00;23.75;;;;;12.39;39.75;99228.19;6076055;28;97475;-72
2022/04/12 05:56:34;;;;;;;;;23.25;22.00;;;;;12.56;39.53;99229.22;6095244;28;96852;-71
2022/04/12 05:59:37;;;;;;;;;21.80;20.00;;;;;12.69;38.93;99239.91;6088105;28;96312;-71
2022/04/12 06:02:41;;;;;;;;;22.80;22.00;;;;;12.72;38.51;99228.63;6087663;28;97789;-71
2022/04/12 06:05:49;;;;;;;;;19.60;17.40;;;;;12.94;38.29;99246.03;6079830;28;96454;-71
2022/04/12 06:08:52;;;;;;;;;22.40;19.00;;;;;13.14;37.77;99244.97;6086001;28;97974;-72
2022/04/12 06:11:55;;;;;;;;;23.20;20.80;;;;;13.34;37.35;99242.81;6085934;28;97401;-70
2022/04/12 06:14:59;;;;;;;;;18.25;17.25;;;;;13.57;36.55;99239.34;6102094;28;96517;-71
2022/04/12 06:18:04;;;;;;;;;20.00;17.60;;;;;13.79;35.96;99243.97;6088359;28;97368;-71
2022/04/12 06:21:07;;;;;;;;;19.00;16.20;;;;;14.08;35.82;99244.91;6086716;28;97549;-70
2022/04/12 06:24:11;;;;;;;;;18.50;17.00;;;;;14.27;34.45;99238.31;6087254;28;98342;-70
2022/04/12 06:27:14;;;;;;;;;18.00;15.00;;;;;14.58;33.73;99250.69;6087388;28;96503;-70
2022/04/12 06:30:18;;;;;;;;;16.40;14.00;;;;;14.86;33.22;99258.06;6099468;28;97403;-71
2022/04/12 06:33:23;;;;;;;;;13.60;11.00;;;;;15.13;32.44;99256.44;6070224;28;99529;-71
2022/04/12 06:36:26;;;;;;;;;14.00;13.00;;;;;15.38;32.14;99260.72;6086849;28;97608;-70
2022/04/12 06:39:30;;;;;;;;;17.00;15.00;;;;;15.77;32.35;99264.44;6085489;28;96724;-71
2022/04/12 06:42:33;;;;;;;;;16.40;15.40;;;;;16.09;31.81;99257.34;6086861;28;96354;-71
2022/04/12 06:45:42;;;;;;;;;15.00;13.00;;;;;16.26;30.23;99270.94;6086845;28;96733;-70
2022/04/12 06:48:46;;;;;;;;;14.00;13.00;;;;;16.45;30.17;99261.41;6087993;28;96207;-70
2022/04/12 06:51:49;;;;;;;;;15.00;14.80;;;;;16.74;30.73;99271.13;6079085;28;96250;-69
2022/04/12 06:54:53;;;;;;;;;15.80;14.80;;;;;16.91;29.35;99271.03;6053012;28;96918;-70
2022/04/12 06:57:56;;;;;;;;;17.40;16.40;;;;;17.06;29.09;99270.41;6086610;28;96953;-71
2022/04/12 07:00:59;;;;;;;;;19.50;18.50;;;;;17.13;29.33;99263.69;6086725;28;96781;-70
2022/04/12 07:04:12;;;;;;;;;21.00;19.00;;;;;17.45;29.60;99271.09;6085502;28;96513;-71
2022/04/12 07:07:15;;;;;;;;;21.40;18.00;;;;;17.67;29.04;99263.75;6088001;28;96819;-70
2022/04/12 07:10:18;;;;;;;;;19.40;17.60;;;;;17.98;28.95;99271.13;6085717;28;96528;-71
2022/04/12 07:13:23;;;;;;;;;17.80;16.80;;;;;18.35;28.91;99273.00;6087240;28;97324;-70
2022/04/12 07:16:27;;;;;;;;;21.40;19.40;;;;;18.65;28.31;99264.22;6078101;28;96882;-70
2022/04/12 07:19:32;;;;;;;;;18.60;16.40;;;;;18.83;26.63;99271.97;6084818;28;97643;-71
2022/04/12 07:22:35;;;;;;;;;18.40;17.40;;;;;18.90;26.46;99275.28;6087638;28;96999;-70
2022/04/12 07:25:38;;;;;;;;;19.00;17.20;;;;;19.04;25.87;99282.72;6086222;28;97073;-71
2022/04/12 07:28:42;;;;;;;;;18.60;16.80;;;;;19.19;25.77;99279.22;6078286;28;99790;-70
2022/04/12 07:31:46;;;;;;;;;19.00;17.00;;;;;19.24;25.63;99281.16;6086283;28;96328;-72
2022/04/12 07:34:51;;;;;;;;;19.00;17.00;;;;;19.42;25.64;99283.38;6085126;28;99712;-72
2022/04/12 07:37:55;;;;;;;;;20.00;17.00;;;;;19.73;26.74;99282.41;6086104;28;97070;-71
2022/04/12 07:40:58;;;;;;;;;17.20;16.20;;;;;20.09;25.88;99274.19;6078689;28;97439;-70
2022/04/12 07:44:01;;;;;;;;;20.00;16.00;;;;;20.28;24.49;99276.09;6087026;28;97344;-70
2022/04/12 07:47:05;;;;;;;;;17.40;17.00;;;;;20.43;24.82;99264.31;6066920;28;97109;-71
2022/04/12 07:50:10;;;;;;;;;17.20;16.20;;;;;20.81;24.86;99276.56;6085382;28;96339;-71
2022/04/12 07:53:14;;;;;;;;;15.75;13.75;;;;;20.99;23.59;99280.63;6086825;28;96688;-71
2022/04/12 07:56:23;;;;;;;;;17.40;16.00;;;;;21.26;23.65;99275.56;6069928;28;98020;-71
2022/04/12 07:59:27;;;;;;;;;18.25;16.50;;;;;21.48;23.20;99275.19;6086048;28;97826;-71
2022/04/12 08:02:30;;;;;;;;;15.00;13.40;;;;;21.80;22.94;99282.94;6084507;28;96597;-71
2022/04/12 08:05:36;;;;;;;;;16.00;15.00;;;;;21.89;22.11;99281.25;6085673;28;97512;-70
2022/04/12 08:08:44;;;;;;;;;17.00;15.00;;;;;21.99;23.17;99294.94;6086996;28;96915;-71
2022/04/12 08:11:48;;;;;;;;;17.20;15.20;;;;;22.19;22.53;99291.16;6084122;28;96360;-71
2022/04/12 08:14:51;;;;;;;;;14.75;13.75;;;;;22.42;23.13;99285.75;6086266;28;97462;-70
2022/04/12 08:17:54;;;;;;;;;16.60;15.00;;;;;22.78;23.23;99290.91;6085641;28;96466;-71
2022/04/12 08:20:59;;;;;;;;;15.00;14.00;;;;;22.96;22.72;99289.34;6084365;28;97422;-72
2022/04/12 08:24:03;;;;;;;;;17.00;15.00;;;;;23.32;21.77;99288.59;6069330;28;96733;-70
2022/04/12 08:27:06;;;;;;;;;13.67;12.67;;;;;23.39;21.46;99293.75;6084211;28;96811;-72
2022/04/12 08:30:10;;;;;;;;;15.60;14.60;;;;;23.57;20.82;99284.72;6086514;28;97402;-71
2022/04/12 08:33:14;;;;;;;;;18.40;16.00;;;;;23.62;20.76;99275.56;6084421;28;97450;-72
2022/04/12 08:36:21;;;;;;;;;20.00;17.40;;;;;23.74;20.05;99281.44;6084089;28;96577;-70
2022/04/12 08:39:29;;;;;;;;;16.60;15.40;;;;;24.16;20.83;99289.59;6086142;28;97411;-72
2022/04/12 08:42:32;;;;;;;;;19.00;16.40;;;;;24.43;20.13;99296.31;6083454;28;98919;-72
2022/04/12 08:45:37;;;;;;;;;13.00;13.00;;;;;24.64;19.91;99282.97;6086421;28;97910;-72
2022/04/12 08:48:41;;;;;;;;;18.00;17.00;;;;;24.89;19.59;99288.03;6085468;28;98698;-72
2022/04/12 08:51:46;;;;;;;;;13.80;12.80;;;;;25.19;19.57;99283.84;6084625;28;98597;-72
2022/04/12 08:54:51;;;;;;;;;14.40;13.00;;;;;25.49;18.33;99283.19;6084919;28;96793;-72
2022/04/12 08:57:54;;;;;;;;;15.00;14.00;;;;;25.64;18.42;99282.88;6085671;28;97401;-71
2022/04/12 09:00:57;;;;;;;;;15.60;13.60;;;;;25.80;17.61;99281.38;6083924;28;96815;-72
2022/04/12 09:04:01;;;;;;;;;13.80;12.20;;;;;25.73;17.36;99285.72;6084397;28;97911;-72
2022/04/12 09:07:09;;;;;;;;;13.00;13.00;;;;;25.80;17.20;99280.59;6086239;28;96817;-72
2022/04/12 09:10:13;;;;;;;;;13.00;11.00;;;;;25.69;17.81;99268.97;6085236;28;97020;-70
2022/04/12 09:13:16;;;;;;;;;13.80;11.20;;;;;25.88;18.03;99274.31;6086681;28;96414;-72
2022/04/12 09:16:20;;;;;;;;;17.00;14.00;;;;;25.99;18.16;99281.22;6086401;28;96328;-72
2022/04/12 09:19:41;;;;;;;;;14.67;13.67;;;;;25.41;17.58;99276.44;6084554;28;97176;-71
2022/04/12 09:22:45;;;;;;;;;14.50;14.00;;;;;24.69;18.51;99241.50;6077559;28;97496;-72
2022/04/12 09:25:54;;;;;;;;;15.33;12.00;;;;;24.72;18.36;99263.81;6085891;28;96636;-71
2022/04/12 09:29:00;;;;;;;;;13.00;12.00;;;;;24.80;18.10;99271.34;6084550;28;96878;-71
2022/04/12 09:32:03;;;;;;;;;14.20;13.00;;;;;25.11;18.13;99268.03;6084004;28;97626;-72
2022/04/12 09:35:08;;;;;;;;;13.00;11.00;;;;;25.01;17.40;99272.63;6087821;28;98339;-72
2022/04/12 09:38:13;;;;;;;;;12.00;12.00;;;;;24.97;17.51;99263.31;6088264;28;96353;-71
2022/04/12 09:41:22;;;;;;;;;16.00;13.00;;;;;24.96;17.60;99267.22;6087870;28;98182;-72
2022/04/12 09:44:25;;;;;;;;;14.00;12.40;;;;;24.72;17.89;99266.56;6082579;28;97974;-71
2022/04/12 09:47:31;;;;;;;;;11.60;11.60;;;;;24.84;18.43;99264.09;6087307;28;96747;-72
2022/04/12 09:51:00;;;;;;;;;15.60;13.00;;;;;25.48;18.29;99272.44;6089807;28;98100;-70
2022/04/12 09:54:07;;;;;;;;;12.00;12.00;;;;;25.85;16.72;99269.41;6088332;28;96765;-71
2022/04/12 09:57:11;;;;;;;;;11.20;10.60;;;;;26.19;16.90;99266.09;6089267;28;97578;-70
2022/04/12 10:00:23;;;;;;;;;14.00;12.75;;;;;26.13;16.57;99239.72;6070786;28;97704;-72
2022/04/12 10:03:28;;;;;;;;;12.20;12.20;;;;;26.06;15.75;99269.72;6087784;28;96585;-72
2022/04/12 10:06:31;;;;;;;;;13.00;11.25;;;;;25.97;15.95;99263.31;6113149;28;96976;-71
2022/04/12 10:09:38;;;;;;;;;12.00;10.60;;;;;26.09;15.79;99249.78;6070514;28;98377;-72
2022/04/12 10:12:41;;;;;;;;;13.00;12.00;;;;;26.16;15.81;99253.72;6079088;28;97743;-71
2022/04/12 10:15:45;;;;;;;;;10.60;9.20;;;;;26.58;15.58;99251.56;6079314;28;97460;-70
2022/04/12 10:18:49;;;;;;;;;10.50;9.50;;;;;27.07;16.37;99254.03;6070655;28;97114;-70
2022/04/12 10:21:52;;;;;;;;;11.00;10.00;;;;;27.61;15.96;99242.78;6068089;28;96943;-70
2022/04/12 10:24:58;;;;;;;;;11.80;10.00;;;;;28.06;15.37;99237.66;6088190;28;97746;-71
2022/04/12 10:28:05;;;;;;;;;12.00;11.00;;;;;28.37;14.70;99250.22;6069239;28;96415;-71
2022/04/12 10:31:24;;;;;;;;;11.80;11.80;;;;;28.21;14.25;99235.22;6078199;28;97481;-72
2022/04/12 10:34:58;;;;;;;;;10.50;10.00;;;;;27.38;15.15;99237.31;6077129;28;98357;-71
2022/04/12 10:38:04;;;;;;;;;10.80;9.80;;;;;26.89;16.12;99234.94;6094055;28;98813;-72
2022/04/12 10:41:30;;;;;;;;;9.00;9.00;;;;;26.57;16.04;99236.91;6082883;28;96471;-72
2022/04/12 10:44:42;;;;;;;;;9.60;9.60;;;;;26.22;16.30;99235.91;6086286;28;97018;-71
2022/04/12 10:47:45;;;;;;;;;9.33;9.00;;;;;25.66;16.67;99224.56;6088782;28;97380;-71
2022/04/12 10:50:51;;;;;;;;;8.00;7.00;;;;;25.27;16.66;99239.78;6071766;28;97918;-71
2022/04/12 10:53:56;;;;;;;;;11.00;11.00;;;;;24.68;16.80;99220.59;6070861;28;97554;-71
2022/04/12 10:57:23;;;;;;;;;9.60;8.00;;;;;24.71;16.86;99231.00;6069297;28;96982;-71
2022/04/12 11:00:30;;;;;;;;;8.40;8.40;;;;;24.97;16.81;99227.44;6084985;28;97456;-70
2022/04/12 11:03:54;;;;;;;;;9.80;9.00;;;;;25.44;16.11;99231.66;6112769;28;97401;-71
2022/04/12 11:06:59;;;;;;;;;9.00;8.60;;;;;25.73;15.75;99241.53;6088141;28;97498;-71
2022/04/12 11:10:08;;;;;;;;;9.00;8.00;;;;;25.70;15.40;99236.63;6088207;28;96463;-71
2022/04/12 11:13:13;;;;;;;;;9.50;9.00;;;;;25.40;15.53;99229.84;6086501;28;96395;-71
2022/04/12 11:16:19;;;;;;;;;9.00;9.00;;;;;25.66;15.66;99233.66;6087122;28;99977;-72
2022/04/12 11:19:24;;;;;;;;;9.20;9.00;;;;;26.05;15.77;99232.16;6087892;28;96782;-70
2022/04/12 11:22:45;;;;;;;;;9.00;8.40;;;;;26.07;15.10;99230.72;6087023;28;97559;-72
2022/04/12 11:25:50;;;;;;;;;10.40;9.00;;;;;26.32;15.24;99228.47;6088761;28;96970;-71
2022/04/12 11:28:56;;;;;;;;;11.00;10.00;;;;;26.58;15.30;99218.38;6086606;28;97571;-71
2022/04/12 11:31:59;;;;;;;;;10.00;10.00;;;;;26.89;15.02;99213.63;6069032;28;98873;-72
2022/04/12 11:35:03;;;;;;;;;9.40;8.40;;;;;27.13;14.93;99215.94;6084070;28;97321;-72
2022/04/12 11:38:06;;;;;;;;;11.20;9.00;;;;;27.38;14.71;99209.63;6084185;28;96475;-73
2022/04/12 11:41:10;;;;;;;;;8.60;8.60;;;;;27.57;14.79;99204.63;6087537;28;96781;-70
2022/04/12 11:44:16;;;;;;;;;9.20;9.20;;;;;27.69;13.61;99197.63;6085568;28;97647;-70
2022/04/12 11:47:20;;;;;;;;;9.80;9.00;;;;;28.00;14.83;99207.34;6086803;28;96280;-70
2022/04/12 11:50:23;;;;;;;;;9.00;9.00;;;;;28.32;15.35;99205.19;6086888;28;97495;-71
2022/04/12 11:53:47;;;;;;;;;10.40;9.00;;;;;28.34;14.52;99205.69;6087547;28;96373;-70
2022/04/12 11:57:01;;;;;;;;;11.00;10.00;;;;;28.50;14.61;99197.63;6087428;28;96259;-70
2022/04/12 12:00:08;;;;;;;;;11.00;10.00;;;;;28.66;14.33;99196.75;6086787;28;97446;-72
2022/04/12 12:03:16;;;;;;;;;11.00;10.00;;;;;28.78;14.02;99202.41;6087554;28;96286;-71
2022/04/12 12:06:20;;;;;;;;;8.00;7.50;;;;;28.70;13.55;99206.03;6085055;28;98332;-72
2022/04/12 12:09:23;;;;;;;;;7.00;7.00;;;;;28.34;13.33;99189.06;6087506;28;96937;-72
2022/04/12 12:12:37;;;;;;;;;8.00;7.00;;;;;28.46;13.38;99203.03;6086919;28;96800;-72
2022/04/12 12:15:41;;;;;;;;;8.00;7.60;;;;;28.25;13.42;99200.16;6084294;28;97469;-71
2022/04/12 12:18:46;;;;;;;;;8.00;8.00;;;;;28.14;13.72;99195.31;6086909;28;97588;-71
2022/04/12 12:21:52;;;;;;;;;8.00;7.00;;;;;27.86;13.04;99203.13;6087121;28;96301;-72
2022/04/12 12:24:56;;;;;;;;;7.80;7.00;;;;;27.75;14.15;99191.59;6082723;28;98708;-70
2022/04/12 12:28:00;;;;;;;;;10.00;8.00;;;;;27.81;13.25;99190.25;6086975;28;96293;-71
2022/04/12 12:31:07;;;;;;;;;8.00;8.00;;;;;27.87;14.58;99186.19;6086253;28;96458;-71
2022/04/12 12:34:26;;;;;;;;;8.00;7.00;;;;;27.60;13.30;99194.88;6083840;28;97414;-71
2022/04/12 12:37:30;;;;;;;;;8.40;8.00;;;;;26.85;13.74;99170.28;6087115;28;96365;-70
2022/04/12 12:40:33;;;;;;;;;9.00;8.00;;;;;26.73;13.78;99179.22;6086644;28;97353;-71
2022/04/12 12:43:36;;;;;;;;;10.00;9.00;;;;;26.78;13.83;99179.03;6084999;28;96854;-71
2022/04/12 12:46:41;;;;;;;;;10.00;9.00;;;;;25.95;13.84;99166.94;6096112;28;96448;-71
2022/04/12 12:49:44;;;;;;;;;9.00;9.00;;;;;26.01;15.13;99167.63;6080180;28;97907;-72
2022/04/12 12:52:48;;;;;;;;;10.40;9.00;;;;;25.65;14.71;99167.72;6078493;28;96507;-72
2022/04/12 12:55:51;;;;;;;;;9.00;8.60;;;;;25.17;15.25;99164.69;6127040;28;97808;-72
2022/04/12 12:59:16;;;;;;;;;10.00;8.00;;;;;24.87;15.12;99160.69;6078967;28;96501;-72
2022/04/12 13:02:21;;;;;;;;;8.60;8.60;;;;;24.96;15.28;99167.91;6076604;28;98309;-71
2022/04/12 13:05:24;;;;;;;;;10.40;9.00;;;;;24.82;14.72;99136.75;6082524;28;98067;-73
2022/04/12 13:08:30;;;;;;;;;8.00;7.00;;;;;24.98;15.72;99148.28;6086221;28;98005;-70
2022/04/12 13:11:35;;;;;;;;;9.20;9.20;;;;;25.13;15.20;99163.66;6079110;28;97932;-71
2022/04/12 13:14:42;;;;;;;;;9.75;9.00;;;;;25.17;15.81;99154.44;6079108;28;97318;-71
2022/04/12 13:17:47;;;;;;;;;11.00;10.40;;;;;24.77;15.67;99150.66;6073852;28;96751;-71
2022/04/12 13:20:51;;;;;;;;;7.60;7.00;;;;;24.26;16.13;99152.78;6079267;28;96882;-72
2022/04/12 13:23:54;;;;;;;;;10.00;9.00;;;;;24.07;16.11;99141.81;6086193;28;97418;-73
2022/04/12 13:26:58;;;;;;;;;8.00;7.00;;;;;23.55;16.07;99148.53;6081954;28;97073;-71
2022/04/12 13:30:02;;;;;;;;;10.00;8.00;;;;;23.51;16.16;99137.28;6065159;28;96744;-73
2022/04/12 13:33:07;;;;;;;;;7.80;7.80;;;;;23.33;16.55;99144.41;6095990;28;97078;-73
2022/04/12 13:36:10;;;;;;;;;9.00;7.00;;;;;23.39;17.61;99153.41;6084124;28;98273;-71
2022/04/12 13:39:14;;;;;;;;;10.00;9.00;;;;;23.66;18.32;99141.72;6077683;28;96878;-72
2022/04/12 13:42:18;;;;;;;;;13.40;13.00;;;;;23.46;17.97;99148.38;6096591;28;97612;-70
2022/04/12 13:45:21;;;;;;;;;12.60;12.60;;;;;23.51;18.42;99142.78;6083097;28;99533;-72
2022/04/12 13:48:25;;;;;;;;;11.20;11.00;;;;;23.62;18.30;99141.50;6086091;28;97050;-72
2022/04/12 13:51:31;;;;;;;;;10.00;9.60;;;;;23.85;18.14;99142.47;6086362;28;98067;-73
2022/04/12 13:54:35;;;;;;;;;12.00;11.00;;;;;24.21;17.84;99150.94;6078046;28;97573;-72
2022/04/12 13:57:38;;;;;;;;;12.60;11.40;;;;;24.37;17.70;99141.25;6085097;28;99275;-72
2022/04/12 14:00:41;;;;;;;;;12.00;11.00;;;;;24.54;17.47;99137.88;6096368;28;96770;-71
2022/04/12 14:03:47;;;;;;;;;11.00;11.00;;;;;24.73;17.36;99135.03;6113661;28;96525;-71
2022/04/12 14:06:51;;;;;;;;;10.75;9.75;;;;;24.02;17.44;99117.13;6080147;28;97749;-71
2022/04/12 14:09:55;;;;;;;;;12.00;11.00;;;;;23.93;17.12;99138.22;6080359;28;97155;-71
2022/04/12 14:13:05;;;;;;;;;14.60;13.00;;;;;24.03;18.09;99138.03;6084501;28;97303;-71